createdAt,value
2023-03-16T00:00:21.757Z,6.32
2023-03-16T00:03:10.961Z,5.68
2023-03-16T00:05:38.875Z,5.27
2023-03-16T00:08:06.666Z,4.97
2023-03-16T00:10:34.738Z,4.76
2023-03-16T00:13:02.934Z,4.58
2023-03-16T00:15:30.708Z,4.43
2023-03-16T00:17:58.451Z,4.30
2023-03-16T00:20:27.880Z,4.18
2023-03-16T00:22:55.820Z,4.07
2023-03-16T00:25:24.375Z,3.94
2023-03-16T00:27:52.422Z,3.84
2023-03-16T00:30:20.170Z,3.76
2023-03-16T00:32:47.922Z,3.69
2023-03-16T00:35:18.317Z,3.62
2023-03-16T00:37:46.182Z,3.56
2023-03-16T00:40:15.288Z,3.50
2023-03-16T00:42:44.327Z,3.72
2023-03-16T00:45:12.294Z,5.27
2023-03-16T00:47:40.024Z,6.85
2023-03-16T00:50:08.352Z,7.43
2023-03-16T00:52:36.098Z,6.83
2023-03-16T00:55:04.809Z,6.03
2023-03-16T00:57:32.792Z,5.39
2023-03-16T01:00:02.284Z,4.91
2023-03-16T01:02:30.037Z,4.53
2023-03-16T01:04:58.469Z,4.16
2023-03-16T01:07:26.954Z,3.87
2023-03-16T01:09:54.745Z,3.68
2023-03-16T01:12:22.757Z,3.55
2023-03-16T01:14:50.518Z,3.43
2023-03-16T01:17:18.445Z,3.32
2023-03-16T01:19:46.488Z,3.43
2023-03-16T01:22:15.172Z,4.54
2023-03-16T01:24:47.014Z,5.89
2023-03-16T01:27:15.145Z,6.97
2023-03-16T01:29:43.830Z,7.35
2023-03-16T01:32:12.937Z,6.65
2023-03-16T01:34:41.569Z,5.88
2023-03-16T01:37:09.825Z,5.32
2023-03-16T01:39:43.782Z,4.91
2023-03-16T01:42:13.872Z,4.59
2023-03-16T01:45:05.922Z,4.29
2023-03-16T01:47:39.544Z,4.02
2023-03-16T01:50:13.980Z,3.82
2023-03-16T01:52:43.117Z,3.64
2023-03-16T01:55:13.475Z,3.47
2023-03-16T01:57:44.080Z,3.34
2023-03-16T02:00:22.085Z,3.23
2023-03-16T02:03:06.249Z,3.16
2023-03-16T02:06:01.537Z,3.09
2023-03-16T02:08:31.628Z,3.25
2023-03-16T02:11:00.123Z,4.61
2023-03-16T02:13:38.535Z,6.10
2023-03-16T02:16:07.825Z,6.73
2023-03-16T02:18:36.316Z,6.17
2023-03-16T02:21:04.326Z,5.38
2023-03-16T02:23:33.164Z,4.79
2023-03-16T02:26:22.986Z,4.35
2023-03-16T02:29:01.297Z,3.97
2023-03-16T02:31:30.599Z,3.69
2023-03-16T02:33:59.262Z,3.50
2023-03-16T02:36:27.847Z,3.34
2023-03-16T02:38:55.669Z,3.24
2023-03-16T02:41:23.905Z,3.16
2023-03-16T02:44:10.890Z,3.07
2023-03-16T02:46:43.475Z,3.30
2023-03-16T02:49:20.744Z,4.78
2023-03-16T02:51:48.586Z,6.25
2023-03-16T02:54:19.073Z,7.10
2023-03-16T02:56:46.924Z,6.51
2023-03-16T02:59:15.109Z,5.64
2023-03-16T03:01:42.937Z,4.97
2023-03-16T03:04:11.568Z,4.47
2023-03-16T03:06:39.783Z,4.08
2023-03-16T03:09:11.604Z,3.75
2023-03-16T03:11:41.384Z,3.45
2023-03-16T03:14:09.193Z,3.22
2023-03-16T03:16:37.906Z,3.04
2023-03-16T03:19:05.846Z,2.91
2023-03-16T03:21:36.801Z,3.41
2023-03-16T03:24:06.097Z,4.85
2023-03-16T03:26:35.306Z,6.28
2023-03-16T03:29:04.444Z,6.94
2023-03-16T03:31:34.138Z,6.33
2023-03-16T03:34:06.772Z,5.58
2023-03-16T03:36:36.248Z,5.01
2023-03-16T03:39:05.273Z,4.58
2023-03-16T03:41:33.945Z,4.19
2023-03-16T03:44:04.439Z,3.89
2023-03-16T03:46:32.684Z,3.64
2023-03-16T03:49:03.837Z,3.43
2023-03-16T03:51:33.868Z,3.26
2023-03-16T03:54:11.897Z,3.11
2023-03-16T03:56:56.067Z,2.97
2023-03-16T03:59:24.129Z,3.11
2023-03-16T04:02:05.541Z,4.44
2023-03-16T04:04:41.691Z,5.78
2023-03-16T04:07:11.354Z,6.72
2023-03-16T04:09:41.934Z,7.15
2023-03-16T04:12:12.272Z,6.37
2023-03-16T04:14:40.071Z,5.56
2023-03-16T04:17:09.334Z,4.98
2023-03-16T04:19:39.924Z,4.58
2023-03-16T04:22:13.012Z,4.26
2023-03-16T04:24:43.222Z,4.01
2023-03-16T04:27:12.512Z,3.79
2023-03-16T04:29:40.951Z,3.57
2023-03-16T04:32:09.844Z,3.36
2023-03-16T04:34:42.125Z,3.16
2023-03-16T04:37:10.498Z,3.00
2023-03-16T04:39:44.088Z,2.87
2023-03-16T04:42:12.562Z,2.75
2023-03-16T04:44:44.471Z,2.67
2023-03-16T04:47:15.632Z,2.83
2023-03-16T04:49:44.923Z,4.26
2023-03-16T04:52:13.627Z,5.76
2023-03-16T04:54:41.814Z,6.52
2023-03-16T04:57:10.685Z,6.03
2023-03-16T04:59:45.434Z,5.31
2023-03-16T05:02:20.973Z,4.79
2023-03-16T05:04:49.553Z,4.46
2023-03-16T05:07:18.273Z,4.20
2023-03-16T05:09:50.007Z,3.97
2023-03-16T05:12:18.305Z,3.80
2023-03-16T05:14:46.286Z,3.64
2023-03-16T05:17:22.241Z,3.48
2023-03-16T05:19:50.690Z,3.35
2023-03-16T05:22:19.265Z,3.23
2023-03-16T05:25:05.695Z,3.10
2023-03-16T05:27:35.197Z,3.00
2023-03-16T05:30:03.995Z,2.91
2023-03-16T05:32:32.689Z,2.84
2023-03-16T05:35:00.568Z,2.77
2023-03-16T05:37:29.023Z,2.71
2023-03-16T05:39:58.641Z,2.84
2023-03-16T05:42:29.568Z,4.27
2023-03-16T05:45:01.691Z,6.05
2023-03-16T05:47:37.893Z,7.04
2023-03-16T05:50:11.211Z,6.51
2023-03-16T05:52:40.574Z,5.81
2023-03-16T05:55:16.230Z,5.32
2023-03-16T05:57:45.378Z,5.00
2023-03-16T06:00:15.914Z,4.71
2023-03-16T06:02:49.411Z,4.47
2023-03-16T06:05:19.746Z,4.28
2023-03-16T06:07:50.194Z,4.15
2023-03-16T06:10:19.237Z,4.02
2023-03-16T06:12:47.289Z,3.88
2023-03-16T06:15:15.158Z,3.77
2023-03-16T06:17:43.180Z,3.65
2023-03-16T06:20:13.450Z,3.59
2023-03-16T06:22:42.900Z,3.59
2023-03-16T06:25:12.757Z,3.84
2023-03-16T06:27:42.616Z,5.33
2023-03-16T06:30:14.174Z,7.00
2023-03-16T06:32:42.538Z,7.85
2023-03-16T06:35:10.435Z,7.36
2023-03-16T06:37:41.557Z,6.65
2023-03-16T06:40:32.144Z,6.03
2023-03-16T06:43:00.588Z,5.65
2023-03-16T06:45:28.554Z,5.32
2023-03-16T06:47:56.905Z,5.05
2023-03-16T06:50:24.708Z,4.82
2023-03-16T06:52:52.738Z,4.64
2023-03-16T06:55:21.011Z,4.54
2023-03-16T06:57:50.046Z,4.42
2023-03-16T07:00:20.496Z,4.54
2023-03-16T07:02:48.448Z,5.93
2023-03-16T07:05:34.132Z,7.52
2023-03-16T07:08:19.772Z,7.25
2023-03-16T07:10:51.097Z,6.51
2023-03-16T07:13:21.244Z,5.97
2023-03-16T07:15:52.182Z,5.58
2023-03-16T07:18:26.134Z,5.34
2023-03-16T07:20:55.504Z,5.16
2023-03-16T07:23:25.801Z,5.06
2023-03-16T07:25:56.390Z,4.97
2023-03-16T07:28:25.623Z,4.91
2023-03-16T07:31:03.321Z,5.12
2023-03-16T07:33:36.309Z,6.41
2023-03-16T07:36:10.694Z,6.98
2023-03-16T07:38:42.690Z,6.63
2023-03-16T07:41:14.001Z,6.28
2023-03-16T07:43:46.979Z,6.05
2023-03-16T07:46:15.898Z,5.89
2023-03-16T07:48:45.428Z,5.81
2023-03-16T07:51:14.320Z,5.78
2023-03-16T07:53:43.879Z,5.78
2023-03-16T07:56:21.587Z,5.77
2023-03-16T07:58:56.230Z,5.83
2023-03-16T08:01:24.662Z,5.90
2023-03-16T08:03:53.993Z,5.92
2023-03-16T08:06:25.965Z,5.95
2023-03-16T08:08:55.226Z,5.95
2023-03-16T08:11:31.014Z,6.04
2023-03-16T08:14:04.280Z,6.19
2023-03-16T08:16:51.707Z,6.33
2023-03-16T08:19:20.542Z,6.43
2023-03-16T08:22:01.438Z,6.49
2023-03-16T08:24:37.532Z,6.61
2023-03-16T08:27:09.391Z,6.72
2023-03-16T08:29:40.761Z,6.80
2023-03-16T08:32:13.180Z,6.93
2023-03-16T08:34:45.921Z,7.03
2023-03-16T08:37:14.770Z,7.17
2023-03-16T08:39:46.733Z,7.29
2023-03-16T08:42:22.361Z,7.40
2023-03-16T08:44:56.045Z,7.48
2023-03-16T08:47:25.889Z,7.55
2023-03-16T08:49:57.398Z,7.67
2023-03-16T08:52:28.012Z,7.68
2023-03-16T08:55:03.367Z,7.70
2023-03-16T08:57:33.747Z,7.74
2023-03-16T14:02:43.925Z,18.75
2023-03-16T14:05:22.087Z,18.83
2023-03-16T14:07:51.430Z,19.07
2023-03-16T14:10:21.078Z,19.46
2023-03-16T14:12:53.569Z,19.87
2023-03-16T14:15:23.894Z,20.43
2023-03-16T14:17:52.444Z,20.78
2023-03-16T14:20:23.301Z,21.02
2023-03-16T14:22:52.788Z,21.31
2023-03-16T14:25:23.699Z,21.68
2023-03-16T14:28:06.233Z,22.07
2023-03-16T14:34:54.619Z,23.44
2023-03-16T14:37:23.037Z,23.77
2023-03-16T14:40:26.269Z,24.01
2023-03-16T14:42:56.190Z,24.49
2023-03-16T14:45:35.937Z,24.99
2023-03-16T14:48:07.420Z,25.38
2023-03-16T14:54:55.310Z,26.38
2023-03-16T14:57:23.293Z,26.75
2023-03-16T14:59:52.488Z,26.95
2023-03-16T15:02:27.168Z,27.19
2023-03-16T15:04:56.723Z,27.59
2023-03-16T15:07:26.834Z,28.13
2023-03-16T15:09:57.481Z,28.66
2023-03-16T15:12:26.210Z,29.19
2023-03-16T15:15:12.676Z,29.82
2023-03-16T15:17:40.850Z,30.52
2023-03-16T15:20:12.308Z,31.05
2023-03-16T15:22:40.644Z,31.46
2023-03-16T15:25:11.769Z,31.82
2023-03-16T15:27:39.638Z,32.06
2023-03-16T15:30:16.386Z,32.06
2023-03-16T15:32:44.550Z,32.27
2023-03-16T15:35:12.683Z,32.68
2023-03-16T15:37:40.804Z,33.08
2023-03-16T15:40:16.094Z,33.19
2023-03-16T15:42:46.789Z,33.23
2023-03-16T15:45:20.824Z,33.47
2023-03-16T15:47:50.219Z,33.75
2023-03-16T15:50:21.987Z,34.08
2023-03-16T15:52:53.569Z,34.24
2023-03-16T15:55:24.266Z,34.09
2023-03-16T15:57:58.756Z,34.04
2023-03-16T16:00:28.776Z,34.07
2023-03-16T16:02:57.856Z,34.15
2023-03-16T16:05:25.968Z,34.18
2023-03-16T16:07:54.879Z,34.03
2023-03-16T16:37:37.710Z,30.60
2023-03-16T16:40:37.260Z,29.19
2023-03-16T16:44:47.764Z,27.27
2023-03-16T19:09:16.928Z,6.02
2023-03-16T19:19:29.644Z,5.98
2023-03-16T19:49:21.796Z,5.33
2023-03-16T20:02:40.400Z,4.86
2023-03-16T20:05:16.727Z,4.89
2023-03-16T20:07:44.601Z,4.87
2023-03-16T20:10:22.300Z,4.85
2023-03-16T20:12:53.551Z,4.82
2023-03-16T20:15:22.588Z,4.82
2023-03-16T20:17:50.607Z,4.81
2023-03-16T20:20:29.794Z,4.79
2023-03-16T20:22:59.678Z,4.77
2023-03-16T20:25:32.374Z,4.75
2023-03-16T20:28:02.147Z,4.73
2023-03-16T20:30:30.834Z,4.71
2023-03-16T20:32:58.782Z,4.67
2023-03-16T20:35:31.223Z,4.64
2023-03-16T20:37:59.271Z,4.61
2023-03-16T20:40:27.060Z,4.58
2023-03-16T20:42:55.019Z,4.54
2023-03-16T20:45:27.177Z,4.52
2023-03-16T20:47:55.034Z,4.50
2023-03-16T20:50:29.282Z,4.49
2023-03-16T20:52:57.497Z,4.48
2023-03-16T20:55:27.238Z,4.47
2023-03-16T20:57:56.464Z,4.46
2023-03-16T21:00:34.695Z,4.46
2023-03-16T21:03:05.166Z,4.47
2023-03-16T21:05:33.831Z,4.47
2023-03-16T21:08:01.612Z,4.48
2023-03-16T21:10:30.900Z,4.48
2023-03-16T21:12:59.042Z,4.47
2023-03-16T21:15:30.342Z,4.47
2023-03-16T21:18:00.809Z,4.46
2023-03-16T21:20:32.118Z,4.45
2023-03-16T21:23:00.807Z,4.46
2023-03-16T21:25:30.960Z,4.46
2023-03-16T21:28:02.284Z,4.45
2023-03-16T21:30:32.069Z,4.47
2023-03-16T21:33:01.919Z,4.48
2023-03-16T21:35:35.902Z,4.51
2023-03-16T21:38:18.259Z,4.56
2023-03-16T21:40:47.128Z,4.60
2023-03-16T21:43:15.706Z,4.63
2023-03-16T21:45:44.320Z,4.67
2023-03-16T21:48:20.212Z,4.67
2023-03-16T21:50:48.544Z,4.69
2023-03-16T21:53:34.314Z,4.69
2023-03-16T21:56:02.041Z,4.68
2023-03-16T21:58:29.775Z,4.66
2023-03-16T22:00:58.504Z,4.66
2023-03-16T22:03:47.950Z,4.66
2023-03-16T22:06:18.169Z,4.67
2023-03-16T22:08:46.496Z,4.67
2023-03-16T22:11:17.325Z,4.67
2023-03-16T22:13:46.499Z,4.66
2023-03-16T22:16:17.151Z,4.65
2023-03-16T22:18:47.032Z,4.62
2023-03-16T22:21:25.612Z,4.60
2023-03-16T22:23:54.339Z,4.58
2023-03-16T22:26:23.489Z,4.57
2023-03-16T22:28:52.398Z,4.56
2023-03-16T22:31:27.694Z,4.54
2023-03-16T22:33:55.678Z,4.51
2023-03-16T22:36:23.663Z,4.47
2023-03-16T22:39:00.244Z,4.45
2023-03-16T22:41:29.720Z,4.43
2023-03-16T22:43:58.284Z,4.43
2023-03-16T22:46:27.693Z,4.46
2023-03-16T22:48:56.568Z,4.48
2023-03-16T22:51:33.466Z,4.50
2023-03-16T22:54:15.464Z,4.51
2023-03-16T22:56:44.745Z,4.51
2023-03-16T22:59:19.110Z,4.50
2023-03-16T23:01:48.744Z,4.51
2023-03-16T23:04:20.042Z,4.51
2023-03-16T23:06:52.887Z,4.50
2023-03-16T23:09:21.940Z,4.49
2023-03-16T23:11:53.912Z,4.47
2023-03-16T23:14:23.273Z,4.46
2023-03-16T23:16:52.673Z,4.45
2023-03-16T23:19:32.401Z,4.43
2023-03-16T23:22:03.531Z,4.37
2023-03-16T23:24:35.125Z,4.36
2023-03-16T23:27:04.562Z,4.35
2023-03-16T23:29:35.417Z,4.30
2023-03-16T23:32:04.451Z,4.26
2023-03-16T23:34:32.202Z,4.20
2023-03-16T23:36:59.937Z,4.17
2023-03-16T23:39:28.800Z,4.14
2023-03-16T23:41:57.465Z,4.16
2023-03-16T23:44:27.634Z,4.16
2023-03-16T23:46:55.550Z,4.16
2023-03-16T23:49:33.551Z,4.16
2023-03-16T23:52:28.244Z,4.17
2023-03-16T23:54:58.385Z,4.16
2023-03-16T23:57:27.899Z,4.15
2023-03-16T23:59:57.073Z,4.14
